This is the latest recevied weather packets stored in our database for station/object YM2KV-13. If no packets are shown the sender has not sent any weather packets the latest 10 day(s).
| Time | Temp. | Humidity | Pressure | Rain* | Wind** | Luminosity | Snow |
|---|---|---|---|---|---|---|---|
| 1777792183 | 12.22° C | 63% | 1024.5 hPa | - | - | - | - |
| 1777791583 | 11.67° C | 63% | 1024.6 hPa | - | - | - | - |
| 1777790983 | 11.67° C | 65% | 1024.8 hPa | - | - | - | - |
| 1777790383 | 11.11° C | 67% | 1024.8 hPa | - | - | - | - |
| 1777789783 | 11.11° C | 67% | 1024.7 hPa | - | - | - | - |
| 1777789183 | 10° C | 73% | 1024.7 hPa | - | - | - | - |
| 1777788583 | 9.44° C | 73% | 1024.7 hPa | - | - | - | - |
| 1777787983 | 8.89° C | 77% | 1024.7 hPa | - | - | - | - |
| 1777787383 | 8.33° C | 77% | 1024.7 hPa | - | - | - | - |
| 1777786783 | 8.33° C | 77% | 1024.7 hPa | - | - | - | - |
| 1777786183 | 8.89° C | 79% | 1024.6 hPa | - | - | - | - |
| 1777785583 | 8.33° C | 78% | 1024.7 hPa | - | - | - | - |
| 1777784983 | 8.33° C | 79% | 1024.7 hPa | - | - | - | - |
| 1777784383 | 7.78° C | 80% | 1024.9 hPa | - | - | - | - |
| 1777783783 | 7.78° C | 79% | 1025 hPa | - | - | - | - |
| 1777783183 | 7.22° C | 81% | 1025.1 hPa | - | - | - | - |
| 1777782583 | 7.22° C | 81% | 1025.1 hPa | - | - | - | - |
| 1777781983 | 6.67° C | 83% | 1025.2 hPa | - | - | - | - |
| 1777781383 | 7.22° C | 81% | 1025.3 hPa | - | - | - | - |
| 1777780783 | 6.67° C | 82% | 1025.2 hPa | - | - | - | - |
| 1777780183 | 6.67° C | 82% | 1025.1 hPa | - | - | - | - |
| 1777779587 | 6.67° C | 82% | 1025.1 hPa | - | - | - | - |
| 1777778983 | 6.11° C | 82% | 1025.1 hPa | - | - | - | - |
| 1777778383 | 6.67° C | 79% | 1025 hPa | - | - | - | - |
| 1777777783 | 7.22° C | 75% | 1024.9 hPa | - | - | - | - |
* Rain since midnight (hover to see other rain measurements)
** Current wind speed in m/s (hover to see current wind gust speed)